N60SB KPIE-KLAL
Flight info
| Callsign | N60SB |
|---|---|
| Flight time | 0h 36m |
| Altitude | VFR |
| Route | |
| Aircraft | L159/M-DOV/C |
Departure
| Time | 2026-04-20 15:28 |
|---|---|
| Airport | St. Petersburg Clearwater International Airport (KPIE) |
Arrival
| Time | 2026-04-20 16:04 |
|---|---|
| Airport | Lakeland Linder International Airport (KLAL) |
| Time | Latitude | Longitude | Altitude | Speed | Heading |
|---|---|---|---|---|---|
| 2026-04-20 15:16 | 27.91534 | -82.69299 | 24 ft | 0 kts | 7° |
| 2026-04-20 15:18 | 27.91542 | -82.69299 | 27 ft | 2 kts | 345° |
| 2026-04-20 15:18 | 27.91551 | -82.69290 | 28 ft | 3 kts | 89° |
| 2026-04-20 15:18 | 27.91549 | -82.69260 | 26 ft | 6 kts | 101° |
| 2026-04-20 15:19 | 27.91492 | -82.69253 | 24 ft | 13 kts | 161° |
| 2026-04-20 15:19 | 27.91449 | -82.69179 | 24 ft | 10 kts | 110° |
| 2026-04-20 15:19 | 27.91438 | -82.69113 | 24 ft | 8 kts | 85° |
| 2026-04-20 15:19 | 27.91461 | -82.69074 | 24 ft | 6 kts | 6° |
| 2026-04-20 15:20 | 27.91500 | -82.69080 | 24 ft | 7 kts | 351° |
| 2026-04-20 15:20 | 27.91558 | -82.69091 | 24 ft | 10 kts | 352° |
| 2026-04-20 15:20 | 27.91644 | -82.69107 | 25 ft | 15 kts | 348° |
| 2026-04-20 15:20 | 27.91760 | -82.69127 | 24 ft | 19 kts | 355° |
| 2026-04-20 15:21 | 27.91901 | -82.69153 | 26 ft | 22 kts | 352° |
| 2026-04-20 15:21 | 27.92055 | -82.69180 | 25 ft | 21 kts | 350° |
| 2026-04-20 15:21 | 27.92177 | -82.69202 | 26 ft | 15 kts | 356° |
| 2026-04-20 15:21 | 27.92248 | -82.69209 | 24 ft | 0 kts | 53° |
| 2026-04-20 15:22 | 27.92205 | -82.69204 | 24 ft | 13 kts | 172° |
| 2026-04-20 15:22 | 27.92132 | -82.69193 | 23 ft | 9 kts | 171° |
| 2026-04-20 15:22 | 27.92051 | -82.69178 | 23 ft | 18 kts | 171° |
| 2026-04-20 15:22 | 27.91903 | -82.69153 | 26 ft | 24 kts | 174° |
| 2026-04-20 15:23 | 27.91726 | -82.69122 | 24 ft | 28 kts | 171° |
| 2026-04-20 15:23 | 27.91529 | -82.69084 | 25 ft | 29 kts | 172° |
| 2026-04-20 15:23 | 27.91332 | -82.69053 | 23 ft | 28 kts | 171° |
| 2026-04-20 15:23 | 27.91141 | -82.69019 | 23 ft | 27 kts | 171° |
| 2026-04-20 15:24 | 27.90958 | -82.68987 | 26 ft | 26 kts | 170° |
| 2026-04-20 15:24 | 27.90785 | -82.68958 | 24 ft | 25 kts | 171° |
| 2026-04-20 15:24 | 27.90619 | -82.68929 | 25 ft | 24 kts | 172° |
| 2026-04-20 15:24 | 27.90458 | -82.68902 | 24 ft | 23 kts | 170° |
| 2026-04-20 15:25 | 27.90298 | -82.68873 | 23 ft | 23 kts | 171° |
| 2026-04-20 15:25 | 27.90187 | -82.68860 | 24 ft | 5 kts | 176° |
| 2026-04-20 15:25 | 27.90183 | -82.68860 | 23 ft | 1 kts | 177° |
| 2026-04-20 15:25 | 27.90174 | -82.68859 | 23 ft | 6 kts | 179° |
| 2026-04-20 15:26 | 27.90087 | -82.68861 | 21 ft | 19 kts | 182° |
| 2026-04-20 15:26 | 27.89920 | -82.68862 | 22 ft | 26 kts | 170° |
| 2026-04-20 15:26 | 27.89764 | -82.68836 | 26 ft | 16 kts | 173° |
| 2026-04-20 15:26 | 27.89693 | -82.68768 | 23 ft | 15 kts | 81° |
| 2026-04-20 15:27 | 27.89709 | -82.68667 | 21 ft | 13 kts | 81° |
| 2026-04-20 15:27 | 27.89769 | -82.68622 | 19 ft | 19 kts | 352° |
| 2026-04-20 15:27 | 27.90104 | -82.68675 | 23 ft | 76 kts | 351° |
| 2026-04-20 15:27 | 27.90725 | -82.68802 | 165 ft | 99 kts | 357° |
| 2026-04-20 15:28 | 27.91432 | -82.68933 | 489 ft | 103 kts | 358° |
| 2026-04-20 15:28 | 27.92154 | -82.69050 | 792 ft | 110 kts | 1° |
| 2026-04-20 15:28 | 27.92902 | -82.69043 | 1106 ft | 108 kts | 32° |
| 2026-04-20 15:28 | 27.93253 | -82.68283 | 1235 ft | 120 kts | 81° |
| 2026-04-20 15:29 | 27.93280 | -82.67333 | 1463 ft | 125 kts | 85° |
| 2026-04-20 15:29 | 27.93231 | -82.66368 | 1718 ft | 128 kts | 91° |
| 2026-04-20 15:29 | 27.92964 | -82.65327 | 1684 ft | 144 kts | 108° |
| 2026-04-20 15:29 | 27.92413 | -82.64349 | 1722 ft | 153 kts | 119° |
| 2026-04-20 15:30 | 27.91951 | -82.63703 | 1758 ft | 159 kts | 123° |
| 2026-04-20 15:30 | 27.90870 | -82.62540 | 1907 ft | 165 kts | 133° |
| 2026-04-20 15:30 | 27.89910 | -82.61738 | 1855 ft | 179 kts | 139° |
| 2026-04-20 15:30 | 27.88819 | -82.60935 | 1707 ft | 192 kts | 146° |
| 2026-04-20 15:31 | 27.87586 | -82.60299 | 1559 ft | 198 kts | 150° |
| 2026-04-20 15:31 | 27.86308 | -82.59710 | 1613 ft | 193 kts | 156° |
| 2026-04-20 15:31 | 27.85424 | -82.59458 | 1549 ft | 198 kts | 166° |
| 2026-04-20 15:31 | 27.84020 | -82.59396 | 1425 ft | 204 kts | 178° |
| 2026-04-20 15:32 | 27.82621 | -82.59568 | 1425 ft | 200 kts | 183° |
| 2026-04-20 15:32 | 27.81233 | -82.59776 | 1376 ft | 203 kts | 185° |
| 2026-04-20 15:32 | 27.79850 | -82.59991 | 1348 ft | 194 kts | 184° |
| 2026-04-20 15:32 | 27.78682 | -82.59668 | 1556 ft | 165 kts | 135° |
| 2026-04-20 15:33 | 27.78094 | -82.58579 | 1395 ft | 168 kts | 110° |
| 2026-04-20 15:33 | 27.77529 | -82.57387 | 1238 ft | 177 kts | 116° |
| 2026-04-20 15:33 | 27.76873 | -82.56206 | 1121 ft | 179 kts | 118° |
| 2026-04-20 15:33 | 27.76179 | -82.55023 | 972 ft | 182 kts | 120° |
| 2026-04-20 15:34 | 27.75650 | -82.53751 | 818 ft | 178 kts | 94° |
| 2026-04-20 15:34 | 27.75985 | -82.52472 | 658 ft | 177 kts | 51° |
| 2026-04-20 15:34 | 27.77010 | -82.51687 | 524 ft | 177 kts | 27° |
| 2026-04-20 15:34 | 27.78078 | -82.51208 | 742 ft | 159 kts | 25° |
| 2026-04-20 15:35 | 27.79059 | -82.50769 | 967 ft | 145 kts | 26° |
| 2026-04-20 15:35 | 27.79974 | -82.50367 | 1193 ft | 138 kts | 26° |
| 2026-04-20 15:35 | 27.80862 | -82.50001 | 1418 ft | 133 kts | 26° |
| 2026-04-20 15:35 | 27.81708 | -82.49660 | 1650 ft | 125 kts | 26° |
| 2026-04-20 15:36 | 27.82503 | -82.49336 | 1883 ft | 120 kts | 25° |
| 2026-04-20 15:36 | 27.83277 | -82.49012 | 2123 ft | 119 kts | 25° |
| 2026-04-20 15:36 | 27.84076 | -82.48690 | 2369 ft | 125 kts | 25° |
| 2026-04-20 15:36 | 27.84911 | -82.48357 | 2628 ft | 131 kts | 26° |
| 2026-04-20 15:37 | 27.85793 | -82.47987 | 2875 ft | 137 kts | 25° |
| 2026-04-20 15:37 | 27.86680 | -82.47609 | 3125 ft | 136 kts | 26° |
| 2026-04-20 15:37 | 27.87555 | -82.47226 | 3372 ft | 134 kts | 25° |
| 2026-04-20 15:37 | 27.88415 | -82.46829 | 3610 ft | 134 kts | 26° |
| 2026-04-20 15:38 | 27.89304 | -82.46414 | 3681 ft | 145 kts | 25° |
| 2026-04-20 15:38 | 27.90267 | -82.45962 | 3696 ft | 154 kts | 26° |
| 2026-04-20 15:38 | 27.91287 | -82.45488 | 3702 ft | 164 kts | 26° |
| 2026-04-20 15:38 | 27.92373 | -82.44980 | 3692 ft | 173 kts | 25° |
| 2026-04-20 15:39 | 27.93487 | -82.44472 | 3697 ft | 172 kts | 26° |
| 2026-04-20 15:39 | 27.94616 | -82.43956 | 3694 ft | 177 kts | 25° |
| 2026-04-20 15:39 | 27.95764 | -82.43417 | 3692 ft | 180 kts | 27° |
| 2026-04-20 15:39 | 27.96914 | -82.42857 | 3688 ft | 180 kts | 26° |
| 2026-04-20 15:40 | 27.98063 | -82.42305 | 3691 ft | 179 kts | 26° |
| 2026-04-20 15:40 | 27.99212 | -82.41755 | 3699 ft | 179 kts | 26° |
| 2026-04-20 15:40 | 28.00349 | -82.41208 | 3703 ft | 176 kts | 26° |
| 2026-04-20 15:40 | 28.01479 | -82.40676 | 3698 ft | 176 kts | 25° |
| 2026-04-20 15:41 | 28.02606 | -82.40134 | 3707 ft | 176 kts | 26° |
| 2026-04-20 15:41 | 28.03744 | -82.39588 | 3699 ft | 179 kts | 26° |
| 2026-04-20 15:41 | 28.04899 | -82.39048 | 3686 ft | 179 kts | 28° |
| 2026-04-20 15:41 | 28.05900 | -82.38249 | 3687 ft | 176 kts | 45° |
| 2026-04-20 15:42 | 28.06634 | -82.37158 | 3698 ft | 173 kts | 60° |
| 2026-04-20 15:42 | 28.07180 | -82.35950 | 3705 ft | 173 kts | 63° |
| 2026-04-20 15:42 | 28.07737 | -82.34736 | 3695 ft | 176 kts | 63° |
| 2026-04-20 15:42 | 28.08284 | -82.33513 | 3695 ft | 173 kts | 63° |
| 2026-04-20 15:43 | 28.08829 | -82.32309 | 3699 ft | 172 kts | 63° |
| 2026-04-20 15:43 | 28.09369 | -82.31104 | 3698 ft | 171 kts | 63° |
| 2026-04-20 15:43 | 28.09912 | -82.29903 | 3699 ft | 171 kts | 62° |
| 2026-04-20 15:43 | 28.10453 | -82.28707 | 3700 ft | 170 kts | 63° |
| 2026-04-20 15:44 | 28.10988 | -82.27522 | 3699 ft | 169 kts | 63° |
| 2026-04-20 15:44 | 28.11525 | -82.26333 | 3690 ft | 170 kts | 63° |
| 2026-04-20 15:44 | 28.12063 | -82.25143 | 3690 ft | 170 kts | 62° |
| 2026-04-20 15:44 | 28.12604 | -82.23950 | 3713 ft | 170 kts | 63° |
| 2026-04-20 15:45 | 28.13142 | -82.22759 | 3706 ft | 170 kts | 62° |
| 2026-04-20 15:45 | 28.13686 | -82.21556 | 3710 ft | 173 kts | 63° |
| 2026-04-20 15:45 | 28.14231 | -82.20345 | 3713 ft | 172 kts | 63° |
| 2026-04-20 15:45 | 28.14768 | -82.19154 | 3710 ft | 172 kts | 63° |
| 2026-04-20 15:46 | 28.15303 | -82.17970 | 3706 ft | 162 kts | 62° |
| 2026-04-20 15:46 | 28.15789 | -82.16889 | 3713 ft | 148 kts | 62° |
| 2026-04-20 15:46 | 28.16253 | -82.15865 | 3605 ft | 147 kts | 62° |
| 2026-04-20 15:46 | 28.16722 | -82.14825 | 3388 ft | 150 kts | 62° |
| 2026-04-20 15:47 | 28.17201 | -82.13764 | 3168 ft | 153 kts | 62° |
| 2026-04-20 15:47 | 28.17683 | -82.12692 | 2936 ft | 152 kts | 62° |
| 2026-04-20 15:47 | 28.18165 | -82.11624 | 2734 ft | 153 kts | 62° |
| 2026-04-20 15:47 | 28.18649 | -82.10547 | 2510 ft | 154 kts | 62° |
| 2026-04-20 15:48 | 28.19137 | -82.09462 | 2293 ft | 154 kts | 62° |
| 2026-04-20 15:48 | 28.19617 | -82.08395 | 2202 ft | 147 kts | 62° |
| 2026-04-20 15:48 | 28.20065 | -82.07399 | 2199 ft | 138 kts | 62° |
| 2026-04-20 15:48 | 28.20487 | -82.06461 | 2191 ft | 129 kts | 60° |
| 2026-04-20 15:49 | 28.20889 | -82.05569 | 2189 ft | 125 kts | 61° |
| 2026-04-20 15:49 | 28.21277 | -82.04706 | 2188 ft | 122 kts | 62° |
| 2026-04-20 15:49 | 28.21661 | -82.03851 | 2179 ft | 122 kts | 61° |
| 2026-04-20 15:49 | 28.22034 | -82.02982 | 2145 ft | 123 kts | 62° |
| 2026-04-20 15:50 | 28.22379 | -82.02103 | 2116 ft | 124 kts | 65° |
| 2026-04-20 15:50 | 28.22694 | -82.01130 | 2261 ft | 135 kts | 68° |
| 2026-04-20 15:50 | 28.23009 | -82.00140 | 2461 ft | 134 kts | 65° |
| 2026-04-20 15:50 | 28.23412 | -81.99175 | 2559 ft | 136 kts | 60° |
| 2026-04-20 15:51 | 28.23921 | -81.98231 | 2508 ft | 147 kts | 56° |
| 2026-04-20 15:51 | 28.24477 | -81.97191 | 2375 ft | 158 kts | 57° |
| 2026-04-20 15:51 | 28.25016 | -81.96098 | 2228 ft | 159 kts | 60° |
| 2026-04-20 15:51 | 28.25545 | -81.95011 | 2130 ft | 155 kts | 60° |
| 2026-04-20 15:52 | 28.26013 | -81.93948 | 2227 ft | 146 kts | 62° |
| 2026-04-20 15:52 | 28.26260 | -81.92851 | 2186 ft | 153 kts | 88° |
| 2026-04-20 15:52 | 28.25805 | -81.91673 | 1990 ft | 176 kts | 124° |
| 2026-04-20 15:53 | 28.23931 | -81.90046 | 2148 ft | 163 kts | 133° |
| 2026-04-20 15:53 | 28.23070 | -81.89204 | 2158 ft | 162 kts | 129° |
| 2026-04-20 15:53 | 28.22228 | -81.88363 | 2133 ft | 161 kts | 133° |
| 2026-04-20 15:53 | 28.21332 | -81.87589 | 2156 ft | 164 kts | 135° |
| 2026-04-20 15:54 | 28.20518 | -81.86709 | 2243 ft | 158 kts | 120° |
| 2026-04-20 15:54 | 28.19998 | -81.85606 | 2263 ft | 158 kts | 106° |
| 2026-04-20 15:54 | 28.19591 | -81.84488 | 2490 ft | 150 kts | 108° |
| 2026-04-20 15:54 | 28.19088 | -81.83422 | 2433 ft | 159 kts | 116° |
| 2026-04-20 15:55 | 28.18427 | -81.82418 | 2555 ft | 165 kts | 128° |
| 2026-04-20 15:55 | 28.17550 | -81.81517 | 2469 ft | 174 kts | 138° |
| 2026-04-20 15:55 | 28.16387 | -81.81091 | 2322 ft | 185 kts | 175° |
| 2026-04-20 15:55 | 28.15096 | -81.81483 | 2146 ft | 197 kts | 209° |
| 2026-04-20 15:56 | 28.14058 | -81.82391 | 2278 ft | 187 kts | 225° |
| 2026-04-20 15:56 | 28.13181 | -81.83458 | 2383 ft | 183 kts | 230° |
| 2026-04-20 15:56 | 28.12335 | -81.84571 | 2368 ft | 186 kts | 230° |
| 2026-04-20 15:56 | 28.11415 | -81.85603 | 2245 ft | 188 kts | 216° |
| 2026-04-20 15:57 | 28.10362 | -81.86500 | 2190 ft | 189 kts | 219° |
| 2026-04-20 15:57 | 28.09399 | -81.87499 | 2127 ft | 185 kts | 232° |
| 2026-04-20 15:57 | 28.08939 | -81.88812 | 2157 ft | 184 kts | 261° |
| 2026-04-20 15:57 | 28.08730 | -81.90214 | 2211 ft | 178 kts | 264° |
| 2026-04-20 15:58 | 28.08565 | -81.91606 | 2148 ft | 180 kts | 268° |
| 2026-04-20 15:58 | 28.08468 | -81.93022 | 2224 ft | 178 kts | 272° |
| 2026-04-20 15:58 | 28.08477 | -81.94321 | 2054 ft | 150 kts | 276° |
| 2026-04-20 15:58 | 28.08477 | -81.95541 | 1773 ft | 168 kts | 267° |
| 2026-04-20 15:59 | 28.08202 | -81.96873 | 1887 ft | 180 kts | 255° |
| 2026-04-20 15:59 | 28.07593 | -81.98127 | 2131 ft | 188 kts | 233° |
| 2026-04-20 15:59 | 28.06761 | -81.99287 | 2074 ft | 187 kts | 231° |
| 2026-04-20 15:59 | 28.05930 | -82.00365 | 2087 ft | 179 kts | 230° |
| 2026-04-20 16:00 | 28.05110 | -82.01449 | 1986 ft | 183 kts | 225° |
| 2026-04-20 16:00 | 28.03959 | -82.01854 | 1876 ft | 177 kts | 173° |
| 2026-04-20 16:00 | 28.02886 | -82.01862 | 1975 ft | 134 kts | 175° |
| 2026-04-20 16:00 | 28.01955 | -82.01978 | 1928 ft | 144 kts | 198° |
| 2026-04-20 16:01 | 28.01269 | -82.02836 | 1898 ft | 150 kts | 252° |
| 2026-04-20 16:01 | 28.01018 | -82.03923 | 2116 ft | 141 kts | 264° |
| 2026-04-20 16:01 | 28.00888 | -82.05043 | 2244 ft | 144 kts | 268° |
| 2026-04-20 16:01 | 28.00720 | -82.06175 | 2299 ft | 151 kts | 252° |
| 2026-04-20 16:02 | 28.00040 | -82.07033 | 2101 ft | 141 kts | 202° |
| 2026-04-20 16:02 | 27.99268 | -82.06921 | 1544 ft | 109 kts | 106° |
| 2026-04-20 16:02 | 27.99108 | -82.06114 | 1030 ft | 100 kts | 92° |
| 2026-04-20 16:02 | 27.99024 | -82.05333 | 801 ft | 104 kts | 88° |
| 2026-04-20 16:03 | 27.99037 | -82.04492 | 542 ft | 108 kts | 85° |
| 2026-04-20 16:03 | 27.99029 | -82.03655 | 294 ft | 102 kts | 85° |
| 2026-04-20 16:03 | 27.99034 | -82.02926 | 163 ft | 81 kts | 85° |
| 2026-04-20 16:03 | 27.99038 | -82.02329 | 162 ft | 75 kts | 83° |
| 2026-04-20 16:04 | 27.99046 | -82.01759 | 143 ft | 56 kts | 88° |
| 2026-04-20 16:04 | 27.99040 | -82.01537 | 143 ft | 6 kts | 93° |
| 2026-04-20 16:04 | 27.99062 | -82.01519 | 143 ft | 7 kts | 338° |
| 2026-04-20 16:04 | 27.99100 | -82.01533 | 143 ft | 3 kts | 351° |
| 2026-04-20 16:05 | 27.99121 | -82.01535 | 143 ft | 7 kts | 360° |
| 2026-04-20 16:05 | 27.99187 | -82.01516 | 144 ft | 8 kts | 13° |
| 2026-04-20 16:05 | 27.99196 | -82.01551 | 144 ft | 0 kts | 253° |